createdAt,value
2022-09-30T00:10:10.781Z,14.68
2022-09-30T00:20:38.062Z,11.90
2022-09-30T00:31:06.249Z,11.65
2022-09-30T00:41:37.151Z,13.13
2022-09-30T00:52:03.795Z,14.60
2022-09-30T01:02:27.938Z,13.40
2022-09-30T01:12:49.559Z,14.25
2022-09-30T01:23:41.218Z,13.85
2022-09-30T01:34:15.209Z,11.55
2022-09-30T01:44:44.597Z,13.15
2022-09-30T01:55:13.860Z,11.77
2022-09-30T02:05:41.196Z,12.23
2022-09-30T02:16:13.011Z,13.38
2022-09-30T02:26:39.327Z,9.45
2022-09-30T02:37:07.001Z,10.00
2022-09-30T02:47:34.179Z,10.48
2022-09-30T03:08:21.995Z,8.45
2022-09-30T03:19:13.015Z,10.32
2022-09-30T03:29:45.463Z,10.35
2022-09-30T03:40:18.468Z,10.05
2022-09-30T03:50:42.467Z,9.95
2022-09-30T04:01:05.171Z,9.57
2022-09-30T04:11:26.737Z,10.00
2022-09-30T04:21:49.335Z,10.55
2022-09-30T04:32:11.006Z,8.55
2022-09-30T04:42:34.395Z,11.20
2022-09-30T04:52:57.352Z,9.93
2022-09-30T05:03:20.415Z,11.75
2022-09-30T05:13:42.439Z,11.25
2022-09-30T05:24:05.309Z,9.93
2022-09-30T05:34:26.886Z,10.00
2022-09-30T05:44:49.467Z,9.35
2022-09-30T05:55:11.499Z,7.97
2022-09-30T06:05:34.610Z,11.52
2022-09-30T06:15:58.000Z,12.45
2022-09-30T06:26:20.938Z,14.20
2022-09-30T06:36:42.501Z,13.18
2022-09-30T06:47:08.549Z,12.95
2022-09-30T06:57:35.897Z,12.55
2022-09-30T07:07:59.917Z,10.70
2022-09-30T07:18:21.570Z,11.05
2022-09-30T07:28:45.197Z,9.73
2022-09-30T07:39:09.780Z,10.55
2022-09-30T07:49:32.845Z,10.65
2022-09-30T07:59:54.595Z,9.98
2022-09-30T08:20:40.695Z,9.70
2022-09-30T08:31:08.832Z,10.25
2022-09-30T08:41:46.399Z,10.73
2022-09-30T08:52:24.571Z,10.55
2022-09-30T09:02:55.871Z,11.40
2022-09-30T09:13:44.081Z,10.25
2022-09-30T09:24:07.600Z,10.65
2022-09-30T09:34:33.957Z,10.88
2022-09-30T09:45:01.509Z,13.23
2022-09-30T09:55:25.249Z,9.37
2022-09-30T10:05:47.798Z,9.73
2022-09-30T10:16:27.830Z,9.05
2022-09-30T10:26:49.481Z,9.75
2022-09-30T10:37:16.742Z,8.05
2022-09-30T10:47:45.655Z,7.93
2022-09-30T11:08:44.628Z,6.82
2022-09-30T11:19:12.538Z,5.97
2022-09-30T11:29:47.187Z,6.80
2022-09-30T11:40:27.675Z,6.53
2022-09-30T11:51:01.212Z,6.28
2022-09-30T12:01:28.792Z,5.97
2022-09-30T12:11:55.958Z,4.68
2022-09-30T12:22:22.152Z,2.47
2022-09-30T12:33:26.226Z,5.20
2022-09-30T12:44:30.125Z,4.50
2022-09-30T12:54:56.927Z,3.70
2022-09-30T13:05:57.677Z,4.28
2022-09-30T13:16:56.479Z,4.88
2022-09-30T13:27:19.736Z,3.80
2022-09-30T13:37:41.701Z,3.63
2022-09-30T13:48:11.832Z,3.25
2022-09-30T13:59:05.695Z,2.97
2022-09-30T14:20:16.275Z,2.95
2022-09-30T14:30:42.035Z,3.28
2022-09-30T14:41:08.280Z,2.97
2022-09-30T14:51:38.175Z,3.10
2022-09-30T15:02:01.509Z,3.67
2022-09-30T15:12:31.847Z,3.42
2022-09-30T15:22:54.331Z,3.92
2022-09-30T15:33:24.310Z,4.10
2022-09-30T15:43:51.332Z,4.10
2022-09-30T15:54:42.344Z,4.10
2022-09-30T16:05:10.263Z,3.93
2022-09-30T16:15:38.672Z,4.53
2022-09-30T16:26:14.653Z,4.57
2022-09-30T16:36:37.678Z,5.55
2022-09-30T16:46:59.296Z,4.55
2022-09-30T16:57:22.180Z,7.28
2022-09-30T17:07:45.776Z,6.47
2022-09-30T17:18:10.322Z,12.65
2022-09-30T17:28:34.763Z,22.02
2022-09-30T17:38:58.055Z,24.00
2022-09-30T17:49:23.985Z,22.40
2022-09-30T17:59:47.315Z,16.63
2022-09-30T18:10:09.833Z,27.98
2022-09-30T18:20:36.672Z,17.48
2022-09-30T18:31:06.349Z,14.88
2022-09-30T18:41:52.043Z,8.98
2022-09-30T18:52:14.804Z,11.95
2022-09-30T19:02:41.087Z,10.55
2022-09-30T19:13:05.813Z,11.37
2022-09-30T19:23:32.016Z,13.45
2022-09-30T19:33:57.055Z,14.87
2022-09-30T19:44:20.146Z,15.20
2022-09-30T19:54:42.655Z,14.02
2022-09-30T20:05:10.068Z,13.52
2022-09-30T20:15:49.291Z,10.85
2022-09-30T20:26:15.871Z,13.35
2022-09-30T20:36:38.033Z,10.73
2022-09-30T20:47:02.041Z,11.30
2022-09-30T20:57:23.459Z,12.07
2022-09-30T21:07:49.589Z,11.85
2022-09-30T21:18:11.602Z,10.80
2022-09-30T21:28:35.118Z,11.70
2022-09-30T21:39:02.188Z,12.32
2022-09-30T21:49:25.618Z,13.10
2022-09-30T21:59:50.356Z,13.27
2022-09-30T22:10:13.435Z,12.02
2022-09-30T22:20:59.588Z,12.80
2022-09-30T22:31:24.244Z,13.10
2022-09-30T22:41:45.774Z,13.90
2022-09-30T22:52:10.087Z,15.30
2022-09-30T23:02:32.245Z,16.48
2022-09-30T23:12:55.066Z,19.27
2022-09-30T23:23:16.367Z,19.40
2022-09-30T23:33:41.000Z,18.98
2022-09-30T23:44:08.428Z,20.17
2022-09-30T23:54:34.719Z,17.67
